Time;durP1;ratioP1;P1;durP2;ratioP2;P2;SDS_P1;SDS_P2;PMS_P1;PMS_P2;Temp;Humidity;BMP_temperature;BMP_pressure;BME280_temperature;BME280_humidity;BME280_pressure;Samples;Min_cycle;Max_cycle;Signal;HPM_P1;HPM_P2
2023/01/03 00:00:36;;;;;;;7.10;2.17;;;;;;;11.08;100.00;99096.44;2602478;28;20404;-85
2023/01/03 00:02:11;;;;;;;9.27;2.78;;;;;;;11.04;100.00;99102.66;2602916;28;20915;-87
2023/01/03 00:03:27;;;;;;;4.68;2.25;;;;;;;10.91;100.00;99105.50;2601402;28;20075;-85
2023/01/03 00:04:42;;;;;;;4.65;2.40;;;;;;;11.02;100.00;99108.78;2603734;28;20240;-85
2023/01/03 00:05:58;;;;;;;3.88;2.22;;;;;;;10.99;100.00;99105.34;2601165;28;20510;-86
2023/01/03 00:07:13;;;;;;;4.03;2.25;;;;;;;10.87;100.00;99104.69;2601997;28;20321;-86
2023/01/03 00:08:29;;;;;;;3.90;2.33;;;;;;;11.06;100.00;99109.59;2604310;28;20056;-85
2023/01/03 00:09:44;;;;;;;6.50;2.38;;;;;;;11.36;100.00;99101.13;2602590;28;20115;-85
2023/01/03 00:11:00;;;;;;;5.38;2.20;;;;;;;11.40;100.00;99098.44;2601570;28;20053;-85
2023/01/03 00:12:25;;;;;;;3.33;2.17;;;;;;;11.30;100.00;99104.75;2602936;28;20045;-84
2023/01/03 00:13:41;;;;;;;4.93;1.98;;;;;;;11.15;100.00;99104.16;2602016;28;20513;-84
2023/01/03 00:14:58;;;;;;;6.43;2.60;;;;;;;11.09;100.00;99100.78;2601975;28;20056;-85
2023/01/03 00:16:16;;;;;;;5.13;2.13;;;;;;;10.96;100.00;99108.03;2602940;28;20080;-85
2023/01/03 00:17:32;;;;;;;3.97;2.10;;;;;;;11.08;100.00;99107.81;2604023;28;20250;-85
2023/01/03 00:18:47;;;;;;;5.47;2.33;;;;;;;11.08;100.00;99115.66;2601795;28;20049;-85
2023/01/03 00:20:03;;;;;;;4.80;2.70;;;;;;;11.11;100.00;99117.38;2601122;28;20397;-86
2023/01/03 00:21:19;;;;;;;5.00;2.15;;;;;;;11.19;100.00;99122.47;2601881;28;20084;-84
2023/01/03 00:22:35;;;;;;;5.35;2.13;;;;;;;11.19;100.00;99127.72;2602799;28;20480;-85
2023/01/03 00:23:51;;;;;;;3.78;1.80;;;;;;;11.14;100.00;99128.63;2603810;28;20140;-87
2023/01/03 00:25:06;;;;;;;7.18;2.85;;;;;;;11.04;100.00;99123.63;2601531;28;20498;-86
2023/01/03 00:26:22;;;;;;;4.00;2.63;;;;;;;10.92;100.00;99122.09;2603001;28;20051;-87
2023/01/03 00:27:38;;;;;;;4.03;2.00;;;;;;;10.97;100.00;99133.34;2601142;28;20060;-86
2023/01/03 00:28:53;;;;;;;6.38;2.25;;;;;;;11.05;100.00;99133.19;2601884;28;20054;-85
2023/01/03 00:30:09;;;;;;;3.88;2.20;;;;;;;11.00;100.00;99130.66;2603599;28;20049;-85
2023/01/03 00:31:26;;;;;;;3.50;2.03;;;;;;;11.18;100.00;99136.47;2602306;28;20072;-84
2023/01/03 00:32:41;;;;;;;3.53;1.83;;;;;;;10.93;100.00;99148.25;2603125;28;20037;-85
2023/01/03 00:33:57;;;;;;;5.15;2.00;;;;;;;11.04;100.00;99147.19;2613918;28;20045;-84
2023/01/03 00:35:12;;;;;;;3.83;2.20;;;;;;;10.99;100.00;99153.41;2608085;28;20100;-85
2023/01/03 00:36:28;;;;;;;5.50;2.17;;;;;;;10.93;100.00;99157.88;2602769;28;20053;-85
2023/01/03 00:37:44;;;;;;;2.97;1.70;;;;;;;10.96;100.00;99155.19;2603440;28;20056;-84
2023/01/03 00:38:59;;;;;;;4.32;1.90;;;;;;;11.05;100.00;99157.66;2602871;28;20053;-84
2023/01/03 00:40:15;;;;;;;4.53;2.17;;;;;;;11.26;100.00;99159.00;2601382;28;20053;-84
2023/01/03 00:41:31;;;;;;;3.45;1.88;;;;;;;11.23;100.00;99158.19;2597521;28;20053;-84
2023/01/03 00:44:20;;;;;;;3.20;1.88;;;;;;;11.15;100.00;99161.81;2600717;28;20056;-84
2023/01/03 00:45:36;;;;;;;4.40;2.10;;;;;;;11.22;100.00;99161.72;2601567;28;20690;-84
2023/01/03 00:46:52;;;;;;;3.45;1.70;;;;;;;11.10;100.00;99174.16;2597502;28;20928;-88
2023/01/03 00:48:07;;;;;;;4.93;2.08;;;;;;;10.91;100.00;99180.63;2600126;28;20068;-85
2023/01/03 00:49:23;;;;;;;4.47;1.80;;;;;;;10.91;100.00;99183.25;2601807;28;20480;-85
2023/01/03 00:50:38;;;;;;;3.22;1.80;;;;;;;11.03;100.00;99188.25;2602841;28;20060;-84
2023/01/03 00:51:54;;;;;;;2.45;1.70;;;;;;;10.87;100.00;99178.03;2602705;28;20147;-86
2023/01/03 00:53:10;;;;;;;2.60;1.70;;;;;;;10.93;100.00;99190.16;2600580;28;20415;-85
2023/01/03 00:54:25;;;;;;;2.30;1.63;;;;;;;10.69;100.00;99183.59;2601851;28;20095;-85
2023/01/03 00:55:41;;;;;;;4.32;1.70;;;;;;;10.59;100.00;99193.38;2601648;28;20041;-84
2023/01/03 00:56:57;;;;;;;3.33;1.90;;;;;;;10.98;100.00;99190.09;2601938;28;20060;-83
2023/01/03 00:58:12;;;;;;;4.88;1.98;;;;;;;11.01;100.00;99190.91;2602325;28;20057;-88
2023/01/03 00:59:28;;;;;;;5.80;1.98;;;;;;;10.98;100.00;99185.72;2602218;28;20085;-85
2023/01/03 01:00:43;;;;;;;3.50;1.98;;;;;;;10.96;100.00;99184.03;2600943;28;20667;-85
2023/01/03 01:01:59;;;;;;;2.67;1.67;;;;;;;11.00;100.00;99183.06;2601377;28;20507;-85
2023/01/03 01:03:16;;;;;;;4.10;1.90;;;;;;;11.05;100.00;99178.63;2601291;28;20095;-87
2023/01/03 01:04:32;;;;;;;5.70;1.88;;;;;;;11.11;100.00;99170.63;2600706;28;20045;-83
2023/01/03 01:05:47;;;;;;;3.75;1.75;;;;;;;11.31;100.00;99166.75;2601797;28;20060;-84
2023/01/03 01:07:03;;;;;;;4.55;1.73;;;;;;;11.26;100.00;99168.63;2601668;28;20053;-85
2023/01/03 01:08:18;;;;;;;2.70;1.75;;;;;;;11.06;100.00;99164.63;2602055;28;20046;-85
2023/01/03 01:09:36;;;;;;;4.30;1.92;;;;;;;11.03;100.00;99167.28;2597104;28;20220;-84
2023/01/03 01:11:00;;;;;;;3.88;1.70;;;;;;;10.90;100.00;99171.03;2603797;28;20053;-84
2023/01/03 01:12:16;;;;;;;5.25;1.90;;;;;;;10.94;100.00;99177.94;2601743;28;20069;-84
2023/01/03 01:13:33;;;;;;;3.13;1.67;;;;;;;11.01;100.00;99179.56;2603541;28;20408;-84
2023/01/03 01:14:48;;;;;;;4.18;1.75;;;;;;;10.94;100.00;99188.44;2600681;28;20053;-89
2023/01/03 01:16:11;;;;;;;4.03;1.60;;;;;;;10.94;100.00;99193.66;2602471;28;20073;-85
2023/01/03 01:17:27;;;;;;;3.05;1.50;;;;;;;10.74;100.00;99193.09;2601770;28;20769;-85
2023/01/03 01:18:44;;;;;;;3.70;1.52;;;;;;;11.12;100.00;99192.47;2601771;28;20073;-85
2023/01/03 01:20:00;;;;;;;4.55;1.90;;;;;;;11.09;100.00;99198.63;2601216;28;20084;-85
2023/01/03 01:21:19;;;;;;;3.65;1.75;;;;;;;11.22;100.00;99196.63;2602269;28;20045;-84
2023/01/03 01:22:34;;;;;;;2.53;1.58;;;;;;;11.21;100.00;99201.94;2602672;28;20533;-84
2023/01/03 01:23:50;;;;;;;3.85;1.70;;;;;;;11.34;100.00;99192.06;2602075;28;20068;-84
2023/01/03 01:25:06;;;;;;;4.30;1.42;;;;;;;11.33;100.00;99204.31;2602630;28;20065;-86
2023/01/03 01:26:23;;;;;;;2.90;1.48;;;;;;;11.38;100.00;99202.47;2601506;28;20079;-85
2023/01/03 01:27:39;;;;;;;2.92;1.98;;;;;;;11.31;100.00;99208.72;2602398;28;20053;-84
2023/01/03 01:28:54;;;;;;;2.15;1.40;;;;;;;11.16;100.00;99221.19;2602680;28;20052;-84
2023/01/03 01:30:10;;;;;;;3.20;1.65;;;;;;;11.06;100.00;99217.03;2601590;28;20049;-85
2023/01/03 01:31:26;;;;;;;3.83;1.60;;;;;;;11.09;100.00;99224.84;2602788;28;20201;-87
2023/01/03 01:32:42;;;;;;;2.63;1.40;;;;;;;11.08;100.00;99215.25;2597035;28;20065;-87
2023/01/03 01:33:57;;;;;;;3.13;1.60;;;;;;;11.21;100.00;99213.25;2601872;28;20103;-85
2023/01/03 01:35:13;;;;;;;3.03;1.30;;;;;;;11.15;100.00;99210.78;2601377;28;20057;-85
2023/01/03 01:36:32;;;;;;;3.13;1.67;;;;;;;11.23;100.00;99213.25;2602599;28;20049;-85
2023/01/03 01:37:47;;;;;;;3.03;1.35;;;;;;;11.23;100.00;99211.47;2600539;28;20081;-84
2023/01/03 01:39:12;;;;;;;4.15;1.50;;;;;;;11.14;100.00;99211.66;2602864;28;20064;-85
2023/01/03 01:40:30;;;;;;;4.05;1.60;;;;;;;11.26;100.00;99202.69;2601133;28;20136;-84
2023/01/03 01:45:00;;;;;;;2.70;1.50;;;;;;;11.11;100.00;99207.31;2601100;28;20049;-90
2023/01/03 01:46:22;;;;;;;2.30;1.50;;;;;;;11.15;100.00;99208.16;2599065;28;20052;-85
2023/01/03 01:47:49;;;;;;;3.33;1.58;;;;;;;10.81;100.00;99214.81;2601935;28;20081;-84
2023/01/03 01:49:10;;;;;;;2.17;1.35;;;;;;;10.93;100.00;99223.38;2603145;28;20077;-85
2023/01/03 01:50:48;;;;;;;3.55;1.65;;;;;;;11.05;100.00;99220.56;2602525;28;20427;-84
2023/01/03 01:52:05;;;;;;;1.83;1.20;;;;;;;10.93;100.00;99239.94;2600549;28;20045;-87
2023/01/03 01:53:33;;;;;;;3.67;1.58;;;;;;;10.96;100.00;99231.19;2600222;28;20057;-85
2023/01/03 01:54:50;;;;;;;3.20;1.48;;;;;;;10.77;100.00;99230.63;2601343;28;20510;-84
2023/01/03 01:56:24;;;;;;;2.20;1.20;;;;;;;10.63;100.00;99233.47;2596833;28;20515;-85
2023/01/03 01:57:40;;;;;;;4.03;1.20;;;;;;;11.01;100.00;99231.97;2596422;28;20098;-84
2023/01/03 01:58:56;;;;;;;1.65;1.13;;;;;;;10.99;100.00;99228.50;2601991;28;20059;-85
2023/01/03 02:00:12;;;;;;;3.45;1.30;;;;;;;11.15;100.00;99226.50;2602176;28;20107;-85
2023/01/03 02:01:29;;;;;;;6.13;1.30;;;;;;;10.96;100.00;99231.19;2602497;28;20049;-85
2023/01/03 02:02:48;;;;;;;2.72;1.17;;;;;;;11.16;100.00;99223.81;2602328;28;20090;-84
2023/01/03 02:04:10;;;;;;;3.05;1.33;;;;;;;11.22;100.00;99224.63;2601284;28;20060;-85
2023/01/03 02:05:27;;;;;;;5.65;1.20;;;;;;;10.75;100.00;99225.38;2602248;28;20102;-85
2023/01/03 02:06:43;;;;;;;3.17;1.25;;;;;;;10.77;100.00;99228.88;2601012;28;20439;-85
2023/01/03 02:07:59;;;;;;;3.10;1.40;;;;;;;10.88;100.00;99232.16;2600485;28;20057;-84
2023/01/03 02:09:15;;;;;;;1.75;1.20;;;;;;;10.94;100.00;99227.72;2602240;28;20057;-84
2023/01/03 02:10:55;;;;;;;1.45;1.00;;;;;;;10.67;100.00;99238.59;2601259;28;20386;-84
2023/01/03 02:14:40;;;;;;;1.88;1.15;;;;;;;10.99;100.00;99232.00;2601331;28;20049;-85
2023/01/03 02:16:11;;;;;;;3.13;1.33;;;;;;;10.72;100.00;99243.78;2601708;28;20171;-85
2023/01/03 02:17:55;;;;;;;3.58;1.38;;;;;;;10.86;100.00;99231.31;2599521;28;20055;-85
2023/01/03 02:19:30;;;;;;;1.40;0.98;;;;;;;10.91;100.00;99230.41;2601089;28;20049;-85
2023/01/03 02:21:23;;;;;;;3.00;1.10;;;;;;;10.94;100.00;99233.81;2596367;28;20065;-85
2023/01/03 02:22:55;;;;;;;2.10;1.20;;;;;;;11.14;100.00;99227.38;2600067;28;20054;-85
2023/01/03 02:24:10;;;;;;;2.33;1.10;;;;;;;11.03;100.00;99230.16;2603177;28;20077;-84
2023/01/03 02:25:49;;;;;;;1.95;1.20;;;;;;;11.03;100.00;99238.03;2602105;28;20050;-84
2023/01/03 02:27:37;;;;;;;2.35;1.95;;;;;;;11.02;100.00;99241.53;2601219;28;20155;-84
2023/01/03 02:29:04;;;;;;;2.80;1.17;;;;;;;11.16;100.00;99238.69;2601930;28;20119;-83
2023/01/03 02:30:56;;;;;;;5.30;1.15;;;;;;;11.13;100.00;99247.47;2602099;28;20052;-83
2023/01/03 02:32:37;;;;;;;2.63;1.00;;;;;;;10.94;100.00;99248.69;2598663;28;20563;-84
2023/01/03 02:34:22;;;;;;;1.00;0.90;;;;;;;10.95;100.00;99248.63;2602221;28;20091;-84
2023/01/03 02:36:07;;;;;;;1.63;1.00;;;;;;;10.84;100.00;99250.59;2601780;28;20041;-84
2023/01/03 02:37:37;;;;;;;1.92;0.82;;;;;;;10.91;100.00;99236.50;2583677;28;20088;-84
2023/01/03 02:39:22;;;;;;;3.85;1.00;;;;;;;11.05;100.00;99244.13;2600488;28;20508;-85
2023/01/03 02:40:45;;;;;;;1.40;1.05;;;;;;;11.09;100.00;99237.06;2601583;28;20048;-84
2023/01/03 02:44:07;;;;;;;1.50;0.90;;;;;;;10.63;100.00;99229.06;2600462;28;20076;-84
2023/01/03 02:45:32;;;;;;;1.13;0.90;;;;;;;10.45;100.00;99217.13;2601926;28;20446;-84
2023/01/03 02:46:57;;;;;;;1.85;1.17;;;;;;;10.26;100.00;99216.50;2600882;28;20056;-84
2023/01/03 02:48:25;;;;;;;2.38;1.20;;;;;;;10.37;100.00;99226.81;2601502;28;20527;-86
2023/01/03 02:49:45;;;;;;;1.10;0.98;;;;;;;10.27;100.00;99244.41;2600363;28;20072;-85
2023/01/03 02:51:04;;;;;;;1.63;0.85;;;;;;;10.29;100.00;99251.34;2601021;28;20132;-84
2023/01/03 02:52:24;;;;;;;2.70;1.15;;;;;;;10.29;100.00;99261.81;2600909;28;20080;-88
2023/01/03 02:53:45;;;;;;;1.23;0.98;;;;;;;10.64;100.00;99267.47;2601781;28;20056;-84
2023/01/03 02:55:04;;;;;;;2.63;1.10;;;;;;;10.83;100.00;99267.22;2601089;28;20590;-84
2023/01/03 02:56:28;;;;;;;2.67;1.00;;;;;;;10.66;100.00;99272.69;2602335;28;20045;-84
2023/01/03 02:57:53;;;;;;;2.00;1.00;;;;;;;10.52;100.00;99271.16;2600766;28;20524;-88
2023/01/03 02:59:18;;;;;;;2.15;1.23;;;;;;;10.78;100.00;99275.13;2601573;28;20049;-87
2023/01/03 03:00:40;;;;;;;1.52;0.95;;;;;;;10.79;100.00;99274.25;2600611;28;20087;-84
2023/01/03 03:01:57;;;;;;;2.03;1.08;;;;;;;10.78;100.00;99267.28;2601516;28;20080;-84
2023/01/03 03:03:15;;;;;;;1.92;1.10;;;;;;;10.78;100.00;99266.41;2600729;28;20163;-85
2023/01/03 03:04:35;;;;;;;2.83;1.10;;;;;;;10.58;100.00;99271.03;2600810;28;20063;-85
2023/01/03 03:06:09;;;;;;;4.40;1.02;;;;;;;10.64;100.00;99264.00;2602388;28;20052;-84
2023/01/03 03:07:33;;;;;;;5.03;1.20;;;;;;;10.42;100.00;99269.53;2602580;28;21277;-85
2023/01/03 03:08:48;;;;;;;2.13;0.90;;;;;;;10.27;100.00;99274.06;2599473;28;20057;-86
2023/01/03 03:13:42;;;;;;;2.65;1.00;;;;;;;10.24;100.00;99274.09;2602355;28;20073;-85
2023/01/03 03:14:58;;;;;;;2.35;1.00;;;;;;;10.36;100.00;99273.06;2600493;28;20159;-85
2023/01/03 03:16:46;;;;;;;1.02;0.80;;;;;;;10.38;100.00;99268.66;2599975;28;20511;-84
2023/01/03 03:18:04;;;;;;;2.53;1.00;;;;;;;10.03;100.00;99276.09;2602591;28;20044;-84
2023/01/03 03:26:12;;;;;;;2.60;1.30;;;;;;;10.19;100.00;99281.13;2601363;28;20144;-84
2023/01/03 03:29:10;;;;;;;2.08;1.10;;;;;;;10.28;100.00;99283.66;2599492;28;20140;-84
2023/01/03 03:30:29;;;;;;;2.03;1.30;;;;;;;10.39;100.00;99290.50;2601928;28;20081;-84
2023/01/03 03:31:50;;;;;;;2.72;1.20;;;;;;;10.44;100.00;99286.97;2602378;28;20093;-84
2023/01/03 03:33:08;;;;;;;2.80;1.30;;;;;;;10.49;100.00;99286.91;2600352;28;20049;-87
2023/01/03 03:34:29;;;;;;;3.95;1.27;;;;;;;10.55;100.00;99286.81;2601313;28;20076;-85
2023/01/03 03:35:49;;;;;;;1.15;1.00;;;;;;;10.39;100.00;99290.50;2602003;28;21111;-84
2023/01/03 03:37:15;;;;;;;1.73;1.25;;;;;;;10.30;100.00;99288.88;2599652;28;20979;-86
2023/01/03 03:38:35;;;;;;;1.42;0.90;;;;;;;10.30;100.00;99288.88;2603395;28;20045;-84
2023/01/03 03:45:19;;;;;;;1.50;0.90;;;;;;;10.06;100.00;99280.44;2600491;28;20103;-84
2023/01/03 03:46:44;;;;;;;1.50;0.98;;;;;;;10.10;100.00;99284.75;2600266;28;20136;-84
2023/01/03 03:48:14;;;;;;;1.80;1.10;;;;;;;10.23;100.00;99290.69;2602108;28;20381;-87
2023/01/03 03:49:38;;;;;;;2.13;0.88;;;;;;;10.28;100.00;99295.88;2602090;28;20132;-86
2023/01/03 03:51:02;;;;;;;2.15;0.80;;;;;;;10.20;100.00;99301.22;2600166;28;20049;-84
2023/01/03 03:52:23;;;;;;;1.27;0.80;;;;;;;10.03;100.00;99302.25;2600859;28;20368;-85
2023/01/03 03:53:41;;;;;;;1.02;0.80;;;;;;;10.13;100.00;99305.66;2600973;28;20057;-84
2023/01/03 03:55:02;;;;;;;0.98;0.70;;;;;;;9.91;100.00;99318.09;2599940;28;20049;-84
2023/01/03 03:56:23;;;;;;;1.00;0.82;;;;;;;9.98;100.00;99317.16;2600977;28;20072;-84
2023/01/03 03:57:45;;;;;;;3.17;0.80;;;;;;;10.18;100.00;99322.16;2600643;28;20913;-83
2023/01/03 03:59:05;;;;;;;1.27;0.95;;;;;;;10.13;100.00;99323.09;2610019;28;20048;-85
2023/01/03 04:00:27;;;;;;;1.13;0.90;;;;;;;10.11;100.00;99312.63;2606149;28;20071;-84
2023/01/03 04:01:45;;;;;;;1.75;0.73;;;;;;;10.16;100.00;99318.69;2598983;28;20076;-84
2023/01/03 04:03:03;;;;;;;1.88;0.75;;;;;;;10.17;100.00;99323.03;2600786;28;20417;-84
2023/01/03 04:04:26;;;;;;;1.63;0.70;;;;;;;10.08;100.00;99317.06;2599695;28;20059;-85
2023/01/03 04:05:51;;;;;;;;;;;;;;;9.96;100.00;99321.53;2602728;28;20045;-85
2023/01/03 04:07:06;;;;;;;1.55;0.95;;;;;;;9.95;100.00;99319.81;2599797;28;19968;-84
2023/01/03 04:08:22;;;;;;;1.40;0.90;;;;;;;9.97;100.00;99318.03;2599985;28;20501;-84
2023/01/03 04:09:38;;;;;;;1.05;0.80;;;;;;;9.94;100.00;99314.59;2601883;28;20049;-87
2023/01/03 04:11:04;;;;;;;1.70;1.17;;;;;;;9.80;100.00;99313.00;2599640;28;20087;-84
2023/01/03 04:12:19;;;;;;;1.08;0.98;;;;;;;9.69;100.00;99318.34;2600709;28;20140;-84
2023/01/03 04:13:37;;;;;;;1.90;0.93;;;;;;;9.68;100.00;99321.84;2601193;28;20088;-84
2023/01/03 04:14:53;;;;;;;1.48;0.95;;;;;;;9.66;100.00;99321.00;2595623;28;20050;-84
2023/01/03 04:16:09;;;;;;;1.92;0.90;;;;;;;9.64;100.00;99322.75;2598846;28;20069;-87
2023/01/03 04:17:24;;;;;;;1.80;0.95;;;;;;;9.55;100.00;99323.69;2601052;28;20053;-84
2023/01/03 04:18:40;;;;;;;1.08;0.77;;;;;;;9.46;100.00;99322.03;2599125;28;20045;-84
2023/01/03 04:19:55;;;;;;;2.92;0.77;;;;;;;9.49;100.00;99315.03;2598933;28;20049;-84
2023/01/03 04:21:11;;;;;;;1.40;1.00;;;;;;;9.39;100.00;99317.75;2597208;28;20564;-84
2023/01/03 04:22:27;;;;;;;3.65;0.90;;;;;;;9.36;100.00;99325.63;2602900;28;20061;-84
2023/01/03 04:23:43;;;;;;;0.60;0.55;;;;;;;9.19;100.00;99331.84;2603872;28;20535;-84
2023/01/03 04:24:58;;;;;;;0.85;0.63;;;;;;;9.28;100.00;99327.44;2597608;28;20068;-84
2023/01/03 04:26:14;;;;;;;1.48;0.90;;;;;;;9.13;100.00;99331.91;2601519;28;20053;-88
2023/01/03 04:27:29;;;;;;;1.17;0.70;;;;;;;8.98;100.00;99334.63;2603012;28;20049;-84
2023/01/03 04:28:45;;;;;;;2.45;0.70;;;;;;;8.85;100.00;99341.66;2601510;28;20065;-83
2023/01/03 04:30:01;;;;;;;0.65;0.60;;;;;;;8.78;100.00;99337.38;2604132;28;20048;-84
2023/01/03 04:31:16;;;;;;;0.75;0.70;;;;;;;8.88;100.00;99339.06;2602779;28;20041;-84
2023/01/03 04:32:32;;;;;;;1.38;0.73;;;;;;;9.13;100.00;99337.13;2602616;28;21040;-85
2023/01/03 04:33:49;;;;;;;2.67;0.90;;;;;;;8.94;100.00;99339.00;2604189;28;20054;-86
2023/01/03 04:35:05;;;;;;;1.27;0.73;;;;;;;9.07;100.00;99338.91;2601606;28;20061;-85
2023/01/03 04:36:20;;;;;;;1.20;0.80;;;;;;;9.07;100.00;99341.53;2601830;28;20144;-84
2023/01/03 04:37:36;;;;;;;1.38;0.70;;;;;;;9.01;100.00;99345.06;2602293;28;20479;-84
2023/01/03 04:38:52;;;;;;;1.63;0.90;;;;;;;8.97;100.00;99341.59;2604007;28;20084;-84
2023/01/03 04:40:08;;;;;;;1.88;0.70;;;;;;;9.00;100.00;99341.56;2603301;28;20555;-87
2023/01/03 04:41:23;;;;;;;2.65;0.80;;;;;;;8.94;100.00;99343.34;2602995;28;20049;-84
2023/01/03 04:44:13;;;;;;;1.15;0.65;;;;;;;9.02;100.00;99344.19;2603011;28;20049;-85
2023/01/03 04:45:29;;;;;;;0.85;0.60;;;;;;;8.81;100.00;99348.69;2601443;28;20466;-84
2023/01/03 04:46:44;;;;;;;2.35;0.88;;;;;;;8.73;100.00;99342.63;2601672;28;20057;-86
2023/01/03 04:48:01;;;;;;;1.45;0.85;;;;;;;8.61;100.00;99343.56;2601800;28;20492;-85
2023/01/03 04:49:16;;;;;;;1.23;0.80;;;;;;;8.60;100.00;99350.53;2600800;28;20137;-84
2023/01/03 04:50:32;;;;;;;1.10;0.70;;;;;;;8.49;100.00;99347.06;2600618;28;20060;-84
2023/01/03 04:51:48;;;;;;;2.60;0.82;;;;;;;8.40;100.00;99353.19;2602114;28;20523;-85
2023/01/03 04:53:03;;;;;;;0.80;0.70;;;;;;;8.24;100.00;99359.34;2603718;28;20500;-85
2023/01/03 04:54:19;;;;;;;2.78;0.82;;;;;;;8.45;100.00;99358.41;2603076;28;20052;-85
2023/01/03 04:55:34;;;;;;;1.05;0.70;;;;;;;8.28;100.00;99355.84;2601006;28;20045;-84
2023/01/03 04:56:50;;;;;;;1.27;0.80;;;;;;;8.29;100.00;99357.59;2602804;28;20083;-86
2023/01/03 04:58:05;;;;;;;1.40;0.70;;;;;;;8.33;100.00;99354.09;2601427;28;20695;-84
2023/01/03 04:59:21;;;;;;;1.33;0.80;;;;;;;8.29;100.00;99352.34;2602778;28;20085;-82
2023/01/03 05:00:37;;;;;;;1.50;0.98;;;;;;;8.12;100.00;99362.88;2602870;28;20362;-83
2023/01/03 05:01:52;;;;;;;1.08;0.73;;;;;;;8.26;100.00;99358.47;2602722;28;20554;-83
2023/01/03 05:03:08;;;;;;;1.02;0.77;;;;;;;8.36;100.00;99361.03;2600774;28;20492;-83
2023/01/03 05:04:24;;;;;;;0.77;0.70;;;;;;;8.15;100.00;99365.47;2603413;28;20064;-85
2023/01/03 05:05:39;;;;;;;1.80;0.93;;;;;;;7.89;100.00;99369.91;2602230;28;20544;-83
2023/01/03 05:06:55;;;;;;;0.70;0.60;;;;;;;7.90;100.00;99369.03;2600379;28;20053;-84
2023/01/03 05:08:11;;;;;;;2.50;0.70;;;;;;;7.70;100.00;99373.38;2600809;28;20049;-85
2023/01/03 05:09:27;;;;;;;1.95;0.77;;;;;;;7.66;100.00;99375.13;2602342;28;20053;-84
2023/01/03 05:10:42;;;;;;;2.15;0.93;;;;;;;7.82;100.00;99375.97;2601155;28;20050;-85
2023/01/03 05:11:58;;;;;;;1.60;0.90;;;;;;;7.82;100.00;99373.38;2603863;28;20069;-85
2023/01/03 05:13:13;;;;;;;1.90;1.20;;;;;;;7.85;100.00;99378.56;2602237;28;20048;-84
2023/01/03 05:14:29;;;;;;;0.90;0.68;;;;;;;7.83;100.00;99369.88;2601787;28;20138;-86
2023/01/03 05:15:45;;;;;;;1.98;0.80;;;;;;;7.96;100.00;99377.69;2603220;28;20144;-87
2023/01/03 05:17:00;;;;;;;1.50;0.98;;;;;;;8.23;100.00;99376.72;2602211;28;20045;-86
2023/01/03 05:18:16;;;;;;;1.35;0.80;;;;;;;8.17;100.00;99372.44;2603379;28;20412;-85
2023/01/03 05:19:31;;;;;;;2.63;0.73;;;;;;;8.32;100.00;99370.63;2601062;28;20689;-86
2023/01/03 05:27:05;;;;;;;1.58;1.00;;;;;;;8.82;100.00;99371.31;2602826;28;20068;-83
2023/01/03 05:28:22;;;;;;;2.33;1.05;;;;;;;8.78;100.00;99376.53;2602974;28;20417;-85
2023/01/03 05:29:38;;;;;;;1.92;0.90;;;;;;;8.76;100.00;99371.31;2602944;28;20124;-84
2023/01/03 05:30:56;;;;;;;1.70;0.70;;;;;;;8.94;100.00;99374.69;2603042;28;20048;-83
2023/01/03 05:32:12;;;;;;;2.35;1.05;;;;;;;8.69;100.00;99374.84;2602034;28;20064;-84
2023/01/03 05:33:28;;;;;;;1.70;0.90;;;;;;;8.88;100.00;99373.00;2601416;28;20052;-84
2023/01/03 05:34:44;;;;;;;0.93;0.77;;;;;;;8.90;100.00;99377.31;2601543;28;20045;-84
2023/01/03 05:35:59;;;;;;;1.05;0.80;;;;;;;9.00;100.00;99370.28;2601628;28;20079;-84
2023/01/03 05:37:15;;;;;;;1.15;0.73;;;;;;;9.02;100.00;99370.28;2601618;28;20217;-84
2023/01/03 05:38:30;;;;;;;0.73;0.73;;;;;;;9.01;100.00;99374.66;2600453;28;20056;-89
2023/01/03 05:39:46;;;;;;;1.23;1.00;;;;;;;8.92;100.00;99384.28;2600260;28;20132;-84
2023/01/03 05:41:02;;;;;;;2.25;1.00;;;;;;;8.92;100.00;99386.88;2602902;28;20102;-85
2023/01/03 05:42:17;;;;;;;2.85;1.00;;;;;;;8.82;100.00;99389.59;2603630;28;20545;-85
2023/01/03 05:43:33;;;;;;;1.15;0.95;;;;;;;8.50;100.00;99387.97;2601096;28;20058;-84
2023/01/03 05:44:48;;;;;;;1.05;0.93;;;;;;;7.82;100.00;99401.16;2601977;28;20056;-84
2023/01/03 05:46:04;;;;;;;2.25;1.13;;;;;;;7.99;100.00;99398.53;2602357;28;20380;-89
2023/01/03 05:47:20;;;;;;;1.33;0.80;;;;;;;8.18;100.00;99396.75;2600288;28;20412;-86
2023/01/03 05:48:35;;;;;;;1.10;0.80;;;;;;;8.25;100.00;99390.66;2602115;28;20057;-86
2023/01/03 05:49:51;;;;;;;1.67;0.70;;;;;;;7.93;100.00;99393.34;2603276;28;20053;-86
2023/01/03 05:51:06;;;;;;;2.25;0.75;;;;;;;7.51;100.00;99409.88;2596665;28;20053;-88
2023/01/03 05:52:22;;;;;;;1.58;0.70;;;;;;;7.59;100.00;99409.88;2601374;28;20491;-85
2023/01/03 05:53:37;;;;;;;1.73;1.00;;;;;;;7.62;100.00;99420.31;2602190;28;20049;-86
2023/01/03 05:54:53;;;;;;;2.08;0.82;;;;;;;7.84;100.00;99418.56;2601637;28;20048;-85
2023/01/03 05:56:09;;;;;;;2.28;0.93;;;;;;;7.96;100.00;99416.81;2600964;28;20053;-85
2023/01/03 05:57:25;;;;;;;2.40;0.85;;;;;;;8.09;100.00;99410.69;2601815;28;20128;-88
2023/01/03 05:58:44;;;;;;;3.40;1.20;;;;;;;8.25;100.00;99416.75;2600495;28;20041;-85
2023/01/03 06:00:00;;;;;;;2.20;0.80;;;;;;;8.17;100.00;99405.47;2600612;28;20045;-85
2023/01/03 06:01:16;;;;;;;2.53;1.17;;;;;;;8.42;100.00;99408.00;2601851;28;20495;-85
2023/01/03 06:02:31;;;;;;;2.42;1.00;;;;;;;8.60;100.00;99402.72;2600867;28;20053;-85
2023/01/03 06:03:47;;;;;;;2.75;0.95;;;;;;;8.73;100.00;99400.06;2602090;28;20100;-85
2023/01/03 06:05:03;;;;;;;2.97;0.88;;;;;;;8.76;100.00;99403.53;2602411;28;20045;-85
2023/01/03 06:06:19;;;;;;;2.00;0.90;;;;;;;8.84;100.00;99403.50;2612180;28;20059;-85
2023/01/03 06:07:36;;;;;;;1.17;0.77;;;;;;;8.76;100.00;99400.91;2607046;28;20048;-85
2023/01/03 06:08:52;;;;;;;1.17;0.85;;;;;;;8.75;100.00;99396.56;2602528;28;20053;-84
2023/01/03 06:10:08;;;;;;;1.25;0.70;;;;;;;8.73;100.00;99402.66;2601399;28;20463;-87
2023/01/03 06:11:24;;;;;;;1.73;0.80;;;;;;;8.66;100.00;99404.44;2597292;28;20049;-86
2023/01/03 06:12:39;;;;;;;1.60;0.80;;;;;;;8.50;100.00;99402.75;2601184;28;20462;-86
2023/01/03 06:13:55;;;;;;;1.15;0.90;;;;;;;8.06;100.00;99413.31;2600141;28;20053;-86
2023/01/03 06:15:10;;;;;;;1.40;0.73;;;;;;;7.98;100.00;99421.16;2600010;28;20049;-89
2023/01/03 06:18:01;;;;;;;1.38;0.85;;;;;;;7.62;100.00;99412.50;2599387;28;20405;-90
2023/01/03 06:19:16;;;;;;;1.17;0.77;;;;;;;7.82;100.00;99414.19;2602378;28;20075;-89
2023/01/03 06:20:32;;;;;;;2.30;1.00;;;;;;;7.75;100.00;99415.94;2601149;28;20079;-89
2023/01/03 06:21:48;;;;;;;1.10;0.80;;;;;;;7.27;100.00;99422.03;2600520;28;20056;-88
2023/01/03 06:23:03;;;;;;;1.30;0.90;;;;;;;7.51;100.00;99416.81;2601719;28;20461;-89
2023/01/03 06:24:19;;;;;;;1.92;0.80;;;;;;;7.53;100.00;99412.47;2600592;28;20151;-90
2023/01/03 06:25:34;;;;;;;3.10;0.93;;;;;;;7.17;100.00;99413.34;2602113;28;20396;-88
2023/01/03 06:26:50;;;;;;;1.27;1.00;;;;;;;7.07;100.00;99425.47;2596688;28;20152;-88
2023/01/03 06:28:05;;;;;;;0.82;0.75;;;;;;;6.86;100.00;99417.59;2602028;28;20092;-90
2023/01/03 06:29:21;;;;;;;0.90;0.82;;;;;;;6.83;100.00;99425.41;2602221;28;20053;-91
2023/01/03 06:30:36;;;;;;;1.48;1.05;;;;;;;6.91;100.00;99424.56;2602372;28;20053;-89
2023/01/03 06:31:52;;;;;;;2.05;1.10;;;;;;;7.07;100.00;99429.81;2600191;28;20080;-89
2023/01/03 06:33:10;;;;;;;1.85;0.98;;;;;;;7.13;100.00;99423.72;2601513;28;20127;-88
2023/01/03 06:34:26;;;;;;;5.55;1.20;;;;;;;7.19;100.00;99422.00;2602712;28;20067;-90
2023/01/03 06:35:41;;;;;;;1.98;1.20;;;;;;;7.19;100.00;99418.53;2599975;28;20484;-89
2023/01/03 06:36:57;;;;;;;2.17;1.10;;;;;;;6.80;100.00;99421.03;2602124;28;20063;-89
2023/01/03 06:38:13;;;;;;;1.75;1.02;;;;;;;6.37;100.00;99426.97;2596587;28;20224;-89
2023/01/03 06:39:28;;;;;;;1.70;1.10;;;;;;;6.19;100.00;99422.53;2600340;28;20045;-89
2023/01/03 06:40:48;;;;;;;1.98;1.40;;;;;;;6.18;100.00;99426.00;2599990;28;20543;-89
2023/01/03 06:43:38;;;;;;;2.97;1.25;;;;;;;6.28;100.00;99430.34;2600449;28;20689;-88
2023/01/03 06:53:11;;;;;;;1.02;0.73;;;;;;;6.32;100.00;99439.94;2600171;28;20045;-89
2023/01/03 06:54:32;;;;;;;1.30;0.80;;;;;;;6.40;100.00;99441.69;2600486;28;20123;-89